Time;durP1;ratioP1;P1;durP2;ratioP2;P2;SDS_P1;SDS_P2;PMS_P1;PMS_P2;Temp;Humidity;BMP_temperature;BMP_pressure;BME280_temperature;BME280_humidity;BME280_pressure;Samples;Min_cycle;Max_cycle;Signal;HPM_P1;HPM_P2
2022/05/01 00:02:06;;;;;;;;;12.00;9.00;;;;;15.41;37.33;101939.56;5079856;27;45739;-70
2022/05/01 00:04:32;;;;;;;;;7.50;7.00;;;;;15.61;37.50;101981.84;5079354;28;45493;-71
2022/05/01 00:06:58;;;;;;;;;8.00;6.75;;;;;15.48;37.01;101957.19;5077429;27;45461;-70
2022/05/01 00:09:24;;;;;;;;;11.00;9.25;;;;;15.68;36.93;101993.28;5059514;28;45469;-70
2022/05/01 00:11:49;;;;;;;;;10.00;8.25;;;;;15.54;37.27;101968.63;5059122;28;45456;-70
2022/05/01 00:14:15;;;;;;;;;9.50;6.50;;;;;15.55;36.98;101973.91;5058762;28;45985;-70
2022/05/01 00:16:41;;;;;;;;;11.25;7.75;;;;;15.60;37.22;101987.13;5058688;28;45672;-70
2022/05/01 00:19:08;;;;;;;;;8.75;7.75;;;;;15.58;37.30;101988.88;5040572;28;45450;-69
2022/05/01 00:21:34;;;;;;;;;8.00;7.50;;;;;15.53;37.46;101980.94;5063914;27;45457;-71
2022/05/01 00:24:00;;;;;;;;;7.25;7.25;;;;;15.50;37.89;101973.03;5079065;27;46207;-73
2022/05/01 00:26:27;;;;;;;;;8.50;7.50;;;;;15.56;37.26;101982.72;5079115;28;45495;-72
2022/05/01 00:28:58;;;;;;;;;9.25;9.25;;;;;15.47;37.44;101963.34;5079918;28;45519;-71
2022/05/01 00:31:25;;;;;;;;;8.75;8.25;;;;;15.53;37.86;101985.34;5080173;28;45361;-72
2022/05/01 00:36:35;;;;;;;;;9.33;8.67;;;;;15.51;37.48;101980.06;5058604;28;45288;-70
2022/05/01 00:39:03;;;;;;;;;7.75;7.75;;;;;15.46;38.04;101985.34;5058434;28;45714;-71
2022/05/01 00:41:36;;;;;;;;;8.50;8.00;;;;;15.47;37.79;101979.19;5058608;28;45402;-70
2022/05/01 00:44:21;;;;;;;;;13.00;10.00;;;;;15.47;37.59;101983.56;5040053;28;48082;-70
2022/05/01 00:46:53;;;;;;;;;11.75;6.25;;;;;15.41;37.85;101971.25;5045541;27;45383;-77
2022/05/01 00:49:24;;;;;;;;;8.75;6.75;;;;;15.45;37.73;101980.06;5059540;28;45452;-69
2022/05/01 00:52:00;;;;;;;;;10.50;9.75;;;;;15.36;38.02;101970.38;5078916;28;45463;-71
2022/05/01 00:54:29;;;;;;;;;9.25;8.75;;;;;15.20;38.68;101977.34;5078833;27;45608;-71
2022/05/01 00:56:59;;;;;;;;;10.75;9.50;;;;;15.11;38.63;101974.69;5078641;27;45441;-71
2022/05/01 00:59:26;;;;;;;;;13.25;10.00;;;;;14.79;39.09;101956.13;5077807;28;45397;-72
2022/05/01 01:01:52;;;;;;;;;18.25;14.00;;;;;14.70;39.31;101975.41;5078639;28;45454;-71
2022/05/01 01:04:18;;;;;;;;;16.00;10.50;;;;;14.62;39.46;101979.78;5044470;28;46672;-72
2022/05/01 01:06:44;;;;;;;;;15.75;11.00;;;;;14.52;39.67;101980.56;5058195;28;45378;-71
2022/05/01 01:09:11;;;;;;;;;14.75;12.25;;;;;14.31;39.95;101973.44;5040597;28;45521;-73
2022/05/01 01:11:38;;;;;;;;;14.50;11.25;;;;;14.17;40.50;101971.56;5058579;28;45450;-70
2022/05/01 01:14:06;;;;;;;;;10.75;8.50;;;;;14.06;40.42;101961.81;5057872;28;46626;-71
2022/05/01 01:16:34;;;;;;;;;14.00;12.00;;;;;14.10;40.37;101963.63;5058031;28;45635;-71
2022/05/01 01:19:01;;;;;;;;;12.00;11.00;;;;;13.94;40.94;101958.22;5057988;28;45442;-70
2022/05/01 01:21:27;;;;;;;;;10.50;9.75;;;;;14.10;41.20;101974.16;5058568;28;45454;-70
2022/05/01 01:23:53;;;;;;;;;9.00;9.00;;;;;14.17;40.96;101968.94;5057879;28;46236;-70
2022/05/01 01:26:20;;;;;;;;;10.25;10.25;;;;;14.20;40.62;101973.34;5070548;28;45414;-69
2022/05/01 01:28:47;;;;;;;;;13.50;11.00;;;;;14.15;41.05;101954.88;5078298;27;45424;-69
2022/05/01 01:34:03;;;;;;;;;14.25;11.50;;;;;14.08;41.29;101920.56;5078095;27;45844;-73
2022/05/01 01:36:30;;;;;;;;;14.00;9.00;;;;;14.17;40.97;101949.63;5078177;27;45793;-72
2022/05/01 01:38:56;;;;;;;;;15.50;10.75;;;;;14.11;41.24;101950.44;5076242;28;45482;-72
2022/05/01 01:41:25;;;;;;;;;15.25;10.25;;;;;14.05;41.20;101933.69;5057645;28;45435;-71
2022/05/01 01:43:51;;;;;;;;;12.00;10.50;;;;;14.29;40.82;101964.63;5039539;28;47672;-71
2022/05/01 01:46:17;;;;;;;;;13.75;13.00;;;;;14.25;40.75;101960.19;5056736;28;45430;-72
2022/05/01 01:48:47;;;;;;;;;12.00;10.50;;;;;14.34;40.73;101963.78;5057167;28;45493;-72
2022/05/01 01:51:13;;;;;;;;;12.00;11.75;;;;;14.24;41.34;101955.78;5057437;28;45667;-71
2022/05/01 01:53:38;;;;;;;;;16.25;13.50;;;;;14.07;41.34;101950.41;5061930;28;45574;-72
2022/05/01 01:56:05;;;;;;;;;13.00;11.25;;;;;14.17;41.36;101960.16;5077632;27;45493;-72
2022/05/01 01:58:31;;;;;;;;;12.75;12.00;;;;;14.03;41.59;101962.69;5071559;27;45579;-71
2022/05/01 02:00:57;;;;;;;;;14.00;13.00;;;;;13.79;41.49;101947.59;5066289;28;45514;-72
2022/05/01 02:03:24;;;;;;;;;18.00;11.50;;;;;13.58;41.80;101921.97;5056829;28;45987;-72
2022/05/01 02:05:50;;;;;;;;;17.00;13.00;;;;;13.87;42.07;101964.31;5055502;28;45406;-72
2022/05/01 02:08:16;;;;;;;;;16.00;13.50;;;;;13.95;42.08;101965.28;5068527;27;45481;-73
2022/05/01 02:10:44;;;;;;;;;15.00;14.50;;;;;13.73;41.97;101918.56;5077079;28;45513;-73
2022/05/01 02:13:10;;;;;;;;;14.75;14.75;;;;;14.03;41.56;101951.28;5076774;27;45557;-71
2022/05/01 02:15:37;;;;;;;;;14.75;11.25;;;;;14.00;41.58;101938.97;5077298;28;45453;-73
2022/05/01 02:18:04;;;;;;;;;13.25;12.25;;;;;14.09;42.05;101946.03;5059928;28;45379;-71
2022/05/01 02:23:16;;;;;;;;;14.75;14.75;;;;;13.84;42.31;101919.53;5078404;27;45732;-71
2022/05/01 02:25:43;;;;;;;;;13.50;12.25;;;;;13.98;41.91;101953.88;5079941;27;45287;-72
2022/05/01 02:28:10;;;;;;;;;19.50;18.75;;;;;13.86;42.09;101943.25;5069627;27;45528;-72
2022/05/01 02:30:37;;;;;;;;;17.25;14.00;;;;;13.59;42.44;101950.03;5077923;27;45333;-70
2022/05/01 02:33:03;;;;;;;;;20.50;17.50;;;;;13.28;43.35;101922.53;5077440;27;46258;-70
2022/05/01 02:35:28;;;;;;;;;16.75;14.50;;;;;13.36;43.12;101949.84;5062821;28;45461;-72
2022/05/01 02:37:54;;;;;;;;;19.00;14.75;;;;;13.16;43.51;101913.63;5059460;28;45437;-72
2022/05/01 02:40:19;;;;;;;;;18.25;14.75;;;;;13.09;43.52;101898.66;5058071;28;45379;-72
2022/05/01 02:42:45;;;;;;;;;13.50;12.00;;;;;13.32;43.42;101921.72;5058793;28;45652;-72
2022/05/01 02:45:10;;;;;;;;;13.00;10.75;;;;;13.47;42.97;101929.75;5062488;28;45346;-71
2022/05/01 02:48:15;;;;;;;;;12.75;12.25;;;;;13.50;43.27;101928.88;5065553;27;45316;-70
2022/05/01 02:50:41;;;;;;;;;16.75;15.50;;;;;13.44;43.07;101926.22;5046335;28;45418;-71
2022/05/01 02:53:06;;;;;;;;;16.25;12.50;;;;;13.42;43.40;101934.09;5056779;28;45688;-70
2022/05/01 02:55:32;;;;;;;;;13.75;10.50;;;;;13.35;43.50;101901.56;5056763;28;45428;-70
2022/05/01 02:57:57;;;;;;;;;19.25;14.25;;;;;13.48;43.25;101922.75;5057732;28;45521;-69
2022/05/01 03:00:23;;;;;;;;;16.75;15.00;;;;;13.34;43.38;101904.19;5060460;28;45347;-71
2022/05/01 03:02:49;;;;;;;;;15.50;12.75;;;;;13.49;43.35;101920.13;5059680;28;45322;-70
2022/05/01 03:05:18;;;;;;;;;13.25;12.25;;;;;13.56;43.61;101918.41;5066331;27;45493;-72
2022/05/01 03:07:44;;;;;;;;;14.50;12.75;;;;;13.53;43.31;101908.75;5064863;28;45448;-69
2022/05/01 03:10:10;;;;;;;;;13.25;11.25;;;;;13.56;43.10;101906.13;5077502;27;45485;-71
2022/05/01 03:12:37;;;;;;;;;18.50;13.50;;;;;13.61;43.05;101900.91;5079844;27;45494;-70
2022/05/01 03:15:05;;;;;;;;;13.00;12.25;;;;;13.72;42.55;101912.41;5080279;28;45492;-70
2022/05/01 03:22:10;;;;;;;;;15.50;13.75;;;;;13.78;42.42;101908.94;5063739;28;45322;-70
2022/05/01 03:22:59;;;;;;;;;13.25;12.50;;;;;13.72;43.03;101893.13;5058958;28;45818;-70
2022/05/01 03:25:35;;;;;;;;;16.50;15.00;;;;;13.75;42.44;101894.00;5059411;28;45465;-71
2022/05/01 03:28:02;;;;;;;;;13.25;12.50;;;;;13.85;42.66;101897.56;5041906;28;45732;-70
2022/05/01 03:30:28;;;;;;;;;17.00;13.25;;;;;13.88;42.47;101896.72;5047157;28;45607;-71
2022/05/01 03:32:53;;;;;;;;;17.00;14.25;;;;;13.74;42.79;101889.63;5059802;28;46924;-71
2022/05/01 03:35:19;;;;;;;;;15.00;11.75;;;;;13.82;42.89;101897.56;5060219;28;45617;-70
2022/05/01 03:37:45;;;;;;;;;14.50;11.50;;;;;13.83;42.90;101899.31;5060614;28;45390;-70
2022/05/01 03:40:15;;;;;;;;;20.50;17.75;;;;;13.77;42.74;101896.66;5072496;27;45360;-71
2022/05/01 03:42:42;;;;;;;;;17.00;15.25;;;;;13.44;43.40;101898.16;5071612;28;46300;-70
2022/05/01 03:45:09;;;;;;;;;21.75;16.25;;;;;13.36;43.52;101900.72;5043036;28;45716;-70
2022/05/01 03:47:35;;;;;;;;;13.75;13.50;;;;;13.19;43.88;101873.31;5060858;28;45505;-69
2022/05/01 03:50:01;;;;;;;;;17.75;15.50;;;;;13.16;43.95;101892.59;5060766;28;45403;-69
2022/05/01 03:52:29;;;;;;;;;15.75;12.25;;;;;13.20;43.96;101890.88;5060013;28;45569;-71
2022/05/01 03:54:55;;;;;;;;;18.00;16.00;;;;;13.16;43.64;101884.69;5065293;27;45553;-71
2022/05/01 03:57:21;;;;;;;;;15.75;14.25;;;;;13.14;43.42;101872.38;5073774;28;45526;-69
2022/05/01 03:59:47;;;;;;;;;17.25;15.00;;;;;13.25;44.08;101883.03;5080106;28;45477;-69
2022/05/01 04:02:15;;;;;;;;;16.75;12.75;;;;;13.26;43.44;101879.53;5058417;28;45534;-69
2022/05/01 04:04:43;;;;;;;;;18.00;15.00;;;;;13.31;43.77;101891.00;5059356;28;45454;-70
2022/05/01 04:07:12;;;;;;;;;13.75;11.50;;;;;13.09;43.48;101843.41;5059643;28;45546;-70
2022/05/01 04:09:38;;;;;;;;;18.00;12.50;;;;;13.40;43.72;101888.44;5065902;28;45516;-69
2022/05/01 04:12:07;;;;;;;;;14.25;13.00;;;;;13.40;43.43;101884.94;5059375;28;45448;-69
2022/05/01 04:14:36;;;;;;;;;15.50;12.25;;;;;13.41;43.98;101890.22;5076051;28;45382;-71
2022/05/01 04:17:14;;;;;;;;;14.00;11.25;;;;;13.44;43.68;101881.47;5059837;27;45464;-70
2022/05/01 04:20:22;;;;;;;;;14.00;12.25;;;;;13.51;43.15;101892.06;5069144;27;45481;-72
2022/05/01 04:22:49;;;;;;;;;13.50;13.50;;;;;13.55;43.24;101887.72;5063228;28;46063;-71
2022/05/01 04:25:24;;;;;;;;;18.50;11.50;;;;;13.43;43.41;101867.44;5075248;27;45363;-69
2022/05/01 04:27:54;;;;;;;;;14.00;11.25;;;;;13.62;43.20;101899.16;5058512;28;45339;-70
2022/05/01 04:30:22;;;;;;;;;15.50;10.75;;;;;13.55;42.86;101878.06;5058597;28;45476;-70
2022/05/01 04:32:56;;;;;;;;;17.25;14.25;;;;;13.63;43.12;101890.41;5058411;28;46630;-70
2022/05/01 04:35:50;;;;;;;;;19.00;12.00;;;;;13.63;43.23;101895.66;5058390;28;45335;-70
2022/05/01 04:38:24;;;;;;;;;16.75;13.75;;;;;13.63;43.40;101891.28;5068890;28;45648;-70
2022/05/01 04:40:55;;;;;;;;;20.75;17.75;;;;;13.58;43.02;101890.38;5060087;28;45365;-69
2022/05/01 04:43:26;;;;;;;;;19.00;17.50;;;;;13.27;43.58;101879.56;5078261;28;47685;-70
2022/05/01 04:45:56;;;;;;;;;17.75;16.25;;;;;13.22;43.66;101897.03;5077816;27;45409;-69
2022/05/01 04:48:23;;;;;;;;;12.75;12.75;;;;;13.12;43.79;101890.81;5078904;27;45650;-70
2022/05/01 04:50:50;;;;;;;;;16.25;11.75;;;;;13.20;43.97;101892.63;5072084;28;45365;-69
2022/05/01 04:53:17;;;;;;;;;18.50;14.50;;;;;13.21;44.13;101890.00;5060817;28;45626;-69
2022/05/01 04:55:45;;;;;;;;;15.00;14.25;;;;;13.25;43.80;101883.91;5078552;27;45572;-69
2022/05/01 04:58:11;;;;;;;;;14.50;12.00;;;;;13.24;43.60;101878.63;5078848;27;45371;-69
2022/05/01 05:00:37;;;;;;;;;18.75;14.75;;;;;13.12;43.90;101863.59;5078316;28;45589;-71
2022/05/01 05:03:04;;;;;;;;;18.25;17.75;;;;;13.22;44.32;101885.66;5078649;28;45441;-70
2022/05/01 05:05:31;;;;;;;;;17.25;14.25;;;;;13.28;43.99;101893.59;5077135;28;45362;-69
2022/05/01 05:09:53;;;;;;;;;15.50;13.75;;;;;13.34;43.52;101901.56;5076070;27;45351;-69
2022/05/01 05:10:51;;;;;;;;;21.25;18.50;;;;;12.97;44.01;101869.59;5077213;28;45523;-70
2022/05/01 05:13:23;;;;;;;;;22.50;18.50;;;;;13.02;44.30;101888.06;5078006;27;45437;-69
2022/05/01 05:15:50;;;;;;;;;20.00;16.25;;;;;13.00;44.59;101898.53;5069926;28;45738;-70
2022/05/01 05:18:15;;;;;;;;;16.75;14.50;;;;;13.03;44.81;101905.63;5078486;28;45299;-71
2022/05/01 05:20:44;;;;;;;;;18.25;14.75;;;;;12.93;44.60;101878.31;5067741;28;45275;-71
2022/05/01 05:23:10;;;;;;;;;15.25;14.50;;;;;13.14;44.58;101893.44;5077887;27;45397;-71
2022/05/01 05:25:36;;;;;;;;;18.50;14.00;;;;;13.32;44.26;101916.47;5077978;27;45437;-71
2022/05/01 05:28:01;;;;;;;;;24.50;16.50;;;;;13.29;43.72;101893.63;5078853;28;45519;-71
2022/05/01 05:30:27;;;;;;;;;18.75;16.50;;;;;13.45;44.33;101906.91;5079769;28;45387;-71
2022/05/01 05:32:53;;;;;;;;;17.25;13.75;;;;;13.56;43.91;101913.16;5077404;27;46079;-71
2022/05/01 05:35:19;;;;;;;;;16.25;12.75;;;;;13.66;43.42;101922.00;5059153;28;45460;-71
2022/05/01 05:37:44;;;;;;;;;17.00;14.50;;;;;13.72;43.89;101924.72;5058439;28;45585;-70
2022/05/01 05:40:11;;;;;;;;;18.75;16.75;;;;;13.76;43.27;101922.13;5058221;28;45519;-71
2022/05/01 05:42:36;;;;;;;;;16.50;14.25;;;;;13.88;43.55;101920.41;5057547;28;45548;-71
2022/05/01 05:45:02;;;;;;;;;18.25;16.25;;;;;13.93;43.17;101924.88;5057592;28;45418;-71
2022/05/01 05:47:28;;;;;;;;;18.75;17.00;;;;;13.89;43.03;101911.66;5057523;28;45853;-70
2022/05/01 05:49:54;;;;;;;;;21.75;15.75;;;;;13.95;42.97;101912.59;5058120;28;45462;-70
2022/05/01 05:52:19;;;;;;;;;21.50;17.00;;;;;14.04;42.98;101929.31;5077517;28;46164;-71
2022/05/01 05:54:45;;;;;;;;;23.00;21.00;;;;;13.97;42.82;101918.72;5077722;28;45462;-71
2022/05/01 05:57:11;;;;;;;;;26.25;20.75;;;;;13.96;42.97;101924.88;5059334;27;45488;-70
2022/05/01 05:59:37;;;;;;;;;18.25;16.00;;;;;13.41;43.20;101820.94;5059387;28;45423;-70
2022/05/01 06:02:03;;;;;;;;;15.00;14.00;;;;;13.83;42.90;101888.78;5077150;27;45416;-70
2022/05/01 06:04:32;;;;;;;;;22.25;16.75;;;;;13.98;42.81;101912.59;5070341;27;45449;-70
2022/05/01 06:06:58;;;;;;;;;17.50;12.75;;;;;13.58;43.14;101828.06;5057236;28;45352;-70
2022/05/01 06:09:27;;;;;;;;;23.75;21.75;;;;;13.96;43.14;101897.66;5038974;28;45412;-71
2022/05/01 06:11:53;;;;;;;;;20.50;20.00;;;;;13.84;43.36;101869.50;5056961;28;46564;-73
2022/05/01 06:14:19;;;;;;;;;18.00;16.50;;;;;13.99;44.95;101884.50;5056519;28;45439;-71
2022/05/01 06:16:44;;;;;;;;;16.25;14.75;;;;;14.20;43.97;101916.25;5064001;28;45370;-71
2022/05/01 06:19:10;;;;;;;;;17.25;16.25;;;;;14.27;44.15;101917.16;5077685;27;45207;-73
2022/05/01 06:21:35;;;;;;;;;21.50;18.50;;;;;14.43;43.48;101911.09;5077242;28;46014;-69
2022/05/01 06:24:01;;;;;;;;;12.50;12.50;;;;;14.48;43.03;101905.88;5077007;28;45389;-71
2022/05/01 06:26:26;;;;;;;;;19.75;18.00;;;;;14.72;43.46;101922.69;5058175;28;45578;-69
2022/05/01 06:28:52;;;;;;;;;29.25;24.00;;;;;14.62;43.06;101904.19;5077344;28;45264;-71
2022/05/01 06:31:18;;;;;;;;;22.00;20.50;;;;;14.68;42.74;101899.81;5077221;27;45488;-73
2022/05/01 06:33:46;;;;;;;;;20.75;19.00;;;;;14.79;42.32;101906.88;5076194;28;45806;-72
2022/05/01 06:36:13;;;;;;;;;17.50;16.50;;;;;14.91;42.37;101913.97;5058992;28;45441;-69
2022/05/01 06:38:39;;;;;;;;;26.50;21.75;;;;;14.89;41.85;101909.56;5076827;27;45477;-68
2022/05/01 06:41:08;;;;;;;;;25.25;22.50;;;;;14.86;42.00;101913.06;5076487;28;46131;-73
2022/05/01 06:43:39;;;;;;;;;20.00;18.50;;;;;14.90;42.06;101916.59;5076715;28;45556;-74
2022/05/01 06:46:05;;;;;;;;;20.50;18.00;;;;;15.04;41.91;101930.69;5058066;28;45527;-70
2022/05/01 06:48:30;;;;;;;;;25.50;24.75;;;;;14.95;42.10;101941.22;5076928;28;45657;-71
2022/05/01 06:50:56;;;;;;;;;23.25;21.50;;;;;14.75;42.40;101915.66;5058517;28;46030;-71
2022/05/01 06:53:21;;;;;;;;;27.25;20.50;;;;;14.99;42.05;101943.00;5076735;28;45435;-71
2022/05/01 06:55:48;;;;;;;;;29.75;27.00;;;;;14.87;42.03;101924.50;5058887;28;45426;-73
2022/05/01 06:58:13;;;;;;;;;29.75;27.75;;;;;14.94;42.11;101939.47;5055485;28;45603;-72
2022/05/01 07:00:40;;;;;;;;;36.00;32.00;;;;;14.61;42.31;101915.59;5057327;28;45284;-69
2022/05/01 07:03:05;;;;;;;;;31.50;27.25;;;;;14.32;42.59;101901.38;5056617;28;45382;-71
2022/05/01 07:05:31;;;;;;;;;32.50;28.00;;;;;13.58;42.93;101799.13;5057216;28;45487;-71
2022/05/01 07:07:57;;;;;;;;;25.75;20.50;;;;;14.52;42.49;101941.91;5079377;28;45322;-69
2022/05/01 07:10:29;;;;;;;;;21.00;18.75;;;;;14.60;42.74;101924.41;5074921;27;46066;-70
2022/05/01 07:12:54;;;;;;;;;30.75;27.25;;;;;14.51;43.29;101897.09;5056277;27;45446;-72
2022/05/01 07:15:20;;;;;;;;;26.00;23.00;;;;;14.45;43.34;101886.50;5056769;28;45406;-72
2022/05/01 07:17:52;;;;;;;;;37.25;30.50;;;;;14.60;43.11;101912.97;5057503;28;45500;-72
2022/05/01 07:20:18;;;;;;;;;28.75;26.25;;;;;14.50;42.78;101897.94;5059907;28;45362;-73
2022/05/01 07:22:43;;;;;;;;;30.25;27.75;;;;;14.76;42.76;101925.34;5059019;28;45384;-70
2022/05/01 07:25:09;;;;;;;;;24.75;23.75;;;;;14.87;42.99;101922.72;5058801;28;45316;-71
2022/05/01 07:27:35;;;;;;;;;21.25;19.75;;;;;15.02;42.51;101921.91;5058226;28;45463;-73
2022/05/01 07:30:00;;;;;;;;;25.00;19.50;;;;;15.14;42.09;101918.41;5056677;28;46193;-73
2022/05/01 07:32:26;;;;;;;;;21.50;17.75;;;;;15.23;42.52;101918.41;5072740;27;45476;-73
2022/05/01 07:34:52;;;;;;;;;16.50;15.75;;;;;15.37;41.72;101921.94;5076331;27;45330;-70
2022/05/01 07:37:20;;;;;;;;;29.75;24.00;;;;;15.48;41.86;101927.25;5076738;28;45548;-72
2022/05/01 07:39:46;;;;;;;;;27.00;24.50;;;;;15.44;42.18;101931.63;5076026;27;45721;-72
2022/05/01 07:42:11;;;;;;;;;26.75;23.25;;;;;15.47;41.51;101928.13;5075771;27;45358;-72
2022/05/01 07:44:43;;;;;;;;;21.00;18.00;;;;;15.46;41.67;101906.13;5077260;27;45287;-73
2022/05/01 07:47:09;;;;;;;;;21.50;20.75;;;;;15.64;41.20;101923.75;5065453;27;45462;-71
2022/05/01 07:49:34;;;;;;;;;21.75;19.50;;;;;15.67;40.96;101907.00;5061972;28;45991;-71
2022/05/01 07:52:00;;;;;;;;;22.75;19.75;;;;;15.64;40.80;101893.81;5073419;27;45428;-71
2022/05/01 07:54:26;;;;;;;;;25.75;19.75;;;;;15.61;40.81;101876.22;5061739;27;46092;-73
2022/05/01 07:56:52;;;;;;;;;16.75;15.50;;;;;15.75;40.91;101873.56;5062110;28;45548;-73
2022/05/01 07:59:17;;;;;;;;;23.00;19.75;;;;;16.07;40.15;101921.09;5061534;28;47583;-73
2022/05/01 08:01:43;;;;;;;;;21.00;19.00;;;;;16.17;40.08;101908.72;5079641;28;45327;-72
2022/05/01 08:06:52;;;;;;;;;30.75;27.75;;;;;16.01;39.75;101907.88;5059600;28;45460;-73
2022/05/01 08:09:18;;;;;;;;;27.25;20.50;;;;;15.81;39.96;101880.63;5059150;28;45455;-71
2022/05/01 08:11:44;;;;;;;;;23.75;23.00;;;;;16.03;40.13;101900.84;5059384;28;45727;-72
2022/05/01 08:14:12;;;;;;;;;23.25;17.25;;;;;16.02;40.10;101883.22;5055274;28;45369;-72
2022/05/01 08:16:39;;;;;;;;;24.25;21.50;;;;;16.16;39.80;101890.22;5068331;27;45511;-72
2022/05/01 08:21:53;;;;;;;;;26.75;21.75;;;;;16.34;39.78;101895.47;5060272;28;45284;-72
2022/05/01 08:24:19;;;;;;;;;30.50;22.00;;;;;16.27;39.13;101899.00;5040743;28;45332;-72
2022/05/01 08:26:48;;;;;;;;;29.00;27.25;;;;;16.11;38.63;101891.13;5057575;28;45577;-71
2022/05/01 08:29:15;;;;;;;;;21.75;19.50;;;;;15.88;38.74;101896.47;5065637;28;45437;-72
2022/05/01 08:31:42;;;;;;;;;23.25;19.00;;;;;15.63;38.47;101889.41;5078850;28;45516;-73
2022/05/01 08:34:09;;;;;;;;;21.00;21.00;;;;;15.42;38.56;101891.19;5068881;27;45651;-74
2022/05/01 08:36:36;;;;;;;;;17.00;17.00;;;;;15.28;39.39;101869.19;5059878;28;45335;-72
2022/05/01 08:39:02;;;;;;;;;26.00;22.25;;;;;15.35;39.80;101883.25;5059136;28;46646;-72
2022/05/01 08:41:31;;;;;;;;;20.50;19.25;;;;;15.51;40.01;101885.00;5059725;28;45401;-70
2022/05/01 08:43:58;;;;;;;;;22.75;15.50;;;;;15.68;39.33;101877.97;5040675;28;45374;-72
2022/05/01 08:46:31;;;;;;;;;18.25;16.00;;;;;15.92;38.55;101883.25;5051284;28;45275;-70
2022/05/01 08:49:05;;;;;;;;;14.25;14.25;;;;;16.09;40.63;101877.03;5078819;27;45558;-74
2022/05/01 08:51:35;;;;;;;;;18.50;17.50;;;;;16.36;39.59;101877.84;5061564;28;45327;-71
2022/05/01 08:54:12;;;;;;;;;21.50;15.25;;;;;16.57;39.02;101876.00;5079507;27;45340;-75
2022/05/01 08:56:42;;;;;;;;;14.50;12.00;;;;;16.75;38.75;101875.88;5079193;28;45440;-70
2022/05/01 08:59:14;;;;;;;;;32.50;27.75;;;;;16.69;37.47;101882.09;5079308;27;46006;-71
2022/05/01 09:01:41;;;;;;;;;35.25;29.50;;;;;16.39;37.83;101869.88;5060700;28;45374;-70
2022/05/01 09:04:09;;;;;;;;;24.25;24.25;;;;;16.24;38.43;101881.41;5055593;28;45332;-75
2022/05/01 09:06:36;;;;;;;;;27.50;23.75;;;;;15.76;39.23;101811.09;5058838;27;45757;-75
2022/05/01 09:09:08;;;;;;;;;26.50;24.00;;;;;15.74;38.58;101799.63;5058364;28;46530;-73
2022/05/01 09:14:25;;;;;;;;;19.25;17.75;;;;;16.24;38.87;101872.59;5078439;28;45294;-74
2022/05/01 09:17:19;;;;;;;;;24.75;21.50;;;;;16.31;37.88;101859.34;5060080;28;45410;-72
2022/05/01 09:19:53;;;;;;;;;21.50;18.50;;;;;16.44;38.08;101865.44;5074248;27;46543;-70
2022/05/01 09:22:21;;;;;;;;;18.75;17.50;;;;;16.56;37.77;101868.94;5078079;28;45366;-73
2022/05/01 09:24:52;;;;;;;;;20.25;16.50;;;;;16.65;38.44;101853.88;5077533;28;45594;-73
2022/05/01 09:27:32;;;;;;;;;18.50;16.50;;;;;16.86;37.90;101854.69;5078554;27;45319;-71
2022/05/01 09:30:12;;;;;;;;;15.50;14.50;;;;;16.95;37.21;101862.59;5074883;27;45624;-72
2022/05/01 09:32:40;;;;;;;;;25.50;20.75;;;;;16.94;36.66;101853.78;5058018;28;45418;-72
2022/05/01 09:35:15;;;;;;;;;23.75;20.75;;;;;16.81;37.75;101838.84;5062045;28;45507;-71
2022/05/01 09:37:40;;;;;;;;;20.50;20.25;;;;;17.00;37.32;101851.97;5060667;28;45675;-71
2022/05/01 09:40:07;;;;;;;;;18.25;15.00;;;;;17.20;37.49;101852.69;5061313;27;47587;-73
2022/05/01 09:42:36;;;;;;;;;33.50;23.25;;;;;17.08;35.66;101819.25;5060856;28;45474;-72
2022/05/01 09:45:14;;;;;;;;;23.75;17.00;;;;;17.34;35.75;101832.25;5079584;28;45499;-73
2022/05/01 09:47:45;;;;;;;;;17.00;16.00;;;;;17.55;35.41;101838.28;5078693;27;45455;-73
2022/05/01 09:50:16;;;;;;;;;25.50;23.50;;;;;17.66;34.62;101849.66;5078191;28;45445;-82
2022/05/01 09:52:59;;;;;;;;;20.00;16.50;;;;;17.11;34.68;101765.44;5059043;28;45507;-81
2022/05/01 09:55:26;;;;;;;;;22.75;18.25;;;;;17.64;34.55;101846.13;5058426;28;45339;-70
2022/05/01 09:58:05;;;;;;;;;24.25;20.75;;;;;17.53;34.33;101845.34;5039501;28;45550;-73
2022/05/01 10:00:44;;;;;;;;;21.75;19.25;;;;;17.46;34.65;101835.72;5057329;28;45282;-69
2022/05/01 10:03:27;;;;;;;;;18.50;18.50;;;;;17.55;34.36;101833.84;5057248;28;45456;-73
2022/05/01 10:05:56;;;;;;;;;20.75;19.50;;;;;17.50;34.32;101834.78;5056988;28;45458;-72
2022/05/01 10:08:22;;;;;;;;;21.75;17.25;;;;;17.50;34.45;101827.72;5056747;28;45476;-72
2022/05/01 10:10:49;;;;;;;;;23.50;20.25;;;;;17.54;34.38;101825.94;5075648;27;46489;-69
2022/05/01 10:13:23;;;;;;;;;25.75;20.25;;;;;17.51;34.61;101805.66;5077068;27;45487;-71
2022/05/01 10:15:52;;;;;;;;;20.50;19.00;;;;;17.43;34.43;101762.47;5059107;27;45429;-71
2022/05/01 10:18:19;;;;;;;;;18.50;15.00;;;;;17.54;33.65;101763.22;5072944;28;45506;-72
2022/05/01 10:20:45;;;;;;;;;16.33;16.33;;;;;17.51;33.14;101739.44;5075942;27;46161;-71
2022/05/01 10:23:12;;;;;;;;;29.50;26.00;;;;;17.98;33.13;101819.31;5077041;27;45612;-71
2022/05/01 10:25:47;;;;;;;;;39.25;33.00;;;;;18.09;33.44;101820.06;5077051;27;45377;-70
2022/05/01 10:28:30;;;;;;;;;34.25;28.00;;;;;17.88;33.51;101751.41;5077460;28;45737;-70
2022/05/01 10:34:43;;;;;;;;;24.50;24.25;;;;;18.38;32.40;101797.59;5056399;28;45685;-73
2022/05/01 10:37:32;;;;;;;;;23.50;22.25;;;;;18.25;32.43;101802.19;5056709;28;45421;-71
2022/05/01 10:40:00;;;;;;;;;24.25;20.50;;;;;17.97;32.93;101791.06;5017220;28;45371;-71
2022/05/01 10:42:42;;;;;;;;;24.50;21.25;;;;;17.73;33.46;101744.50;5056254;28;45367;-72
2022/05/01 10:45:28;;;;;;;;;21.00;19.25;;;;;17.85;33.69;101759.41;5075114;27;45381;-73
2022/05/01 10:47:55;;;;;;;;;16.00;15.33;;;;;17.83;33.54;101729.38;5066142;27;45537;-72
2022/05/01 10:50:23;;;;;;;;;20.33;14.00;;;;;18.15;33.32;101752.81;5077179;28;45498;-71
2022/05/01 10:53:11;;;;;;;;;27.75;25.50;;;;;18.29;32.25;101757.94;5066049;27;45675;-71
2022/05/01 10:56:12;;;;;;;;;19.25;15.00;;;;;18.49;32.69;101776.25;5073544;28;45418;-70
2022/05/01 10:58:38;;;;;;;;;18.33;15.00;;;;;18.45;32.30;101740.91;5054975;28;45362;-71
2022/05/01 11:01:04;;;;;;;;;20.50;20.50;;;;;18.69;32.13;101767.97;5059924;28;45518;-70
2022/05/01 11:03:35;;;;;;;;;19.33;17.67;;;;;18.83;31.92;101753.63;5075762;27;45453;-72
2022/05/01 11:06:04;;;;;;;;;20.67;14.00;;;;;19.08;32.07;101771.81;5076322;28;45390;-71
2022/05/01 11:08:36;;;;;;;;;16.00;14.00;;;;;19.25;31.35;101761.78;5075128;27;45756;-71
2022/05/01 11:11:08;;;;;;;;;20.00;13.33;;;;;19.43;31.92;101770.28;5076211;28;45551;-71
2022/05/01 11:13:41;;;;;;;;;17.67;17.67;;;;;19.56;30.65;101755.88;5073698;27;45605;-72
2022/05/01 11:16:08;;;;;;;;;20.00;17.33;;;;;19.59;30.51;101755.81;5075901;28;45902;-70
2022/05/01 11:18:34;;;;;;;;;26.50;22.25;;;;;19.71;30.59;101746.75;5077639;27;45537;-72
2022/05/01 11:21:22;;;;;;;;;22.33;20.67;;;;;19.86;30.65;101748.22;5080484;27;45529;-70
2022/05/01 11:24:03;;;;;;;;;22.67;16.67;;;;;19.74;30.63;101687.34;5052567;28;47867;-71
2022/05/01 11:26:29;;;;;;;;;17.33;15.33;;;;;19.91;30.68;101699.38;5059120;28;45522;-70
2022/05/01 11:29:09;;;;;;;;;13.33;12.00;;;;;20.24;29.94;101734.13;5064124;28;45370;-69
2022/05/01 11:31:38;;;;;;;;;23.00;21.67;;;;;19.98;29.80;101701.91;5080128;28;45306;-69
2022/05/01 11:34:19;;;;;;;;;24.00;19.33;;;;;19.90;29.48;101728.66;5080430;27;46325;-70
2022/05/01 11:36:53;;;;;;;;;30.00;23.33;;;;;19.65;30.17;101725.63;5079936;27;45375;-71
2022/05/01 11:39:20;;;;;;;;;25.33;24.00;;;;;19.36;30.47;101718.19;5062051;28;45344;-70
2022/05/01 11:41:51;;;;;;;;;15.00;15.00;;;;;19.45;30.50;101728.63;5081859;27;45362;-69